sensor_id;sensor_type;location;lat;lon;timestamp;pressure;altitude;pressure_sealevel;temperature;humidity
46506;BME280;32220;49.808;9.968;2024-02-26T00:00:26;97183.72;;;5.94;68.35
46506;BME280;32220;49.808;9.968;2024-02-26T00:02:54;97195.50;;;6.01;68.25
46506;BME280;32220;49.808;9.968;2024-02-26T00:05:22;97203.38;;;6.01;68.48
46506;BME280;32220;49.808;9.968;2024-02-26T00:07:51;97193.81;;;6.00;68.20
46506;BME280;32220;49.808;9.968;2024-02-26T00:10:18;97197.41;;;5.99;68.38
46506;BME280;32220;49.808;9.968;2024-02-26T00:12:46;97195.59;;;6.00;68.00
46506;BME280;32220;49.808;9.968;2024-02-26T00:15:14;97192.13;;;5.99;67.72
46506;BME280;32220;49.808;9.968;2024-02-26T00:17:41;97192.97;;;6.00;67.85
46506;BME280;32220;49.808;9.968;2024-02-26T00:20:10;97181.44;;;5.90;67.97
46506;BME280;32220;49.808;9.968;2024-02-26T00:22:38;97186.88;;;5.99;68.70
46506;BME280;32220;49.808;9.968;2024-02-26T00:25:07;97181.00;;;5.96;68.73
46506;BME280;32220;49.808;9.968;2024-02-26T00:27:35;97184.25;;;5.99;68.55
46506;BME280;32220;49.808;9.968;2024-02-26T00:30:03;97164.19;;;5.86;68.30
46506;BME280;32220;49.808;9.968;2024-02-26T00:32:30;97179.31;;;5.95;69.15
46506;BME280;32220;49.808;9.968;2024-02-26T00:34:58;97171.56;;;5.93;69.34
46506;BME280;32220;49.808;9.968;2024-02-26T00:37:25;97157.25;;;5.85;69.44
46506;BME280;32220;49.808;9.968;2024-02-26T00:39:53;97162.00;;;5.92;69.21
46506;BME280;32220;49.808;9.968;2024-02-26T00:42:22;97164.63;;;5.92;69.16
46506;BME280;32220;49.808;9.968;2024-02-26T00:44:49;97160.22;;;5.93;69.31
46506;BME280;32220;49.808;9.968;2024-02-26T00:47:17;97153.19;;;5.93;69.72
46506;BME280;32220;49.808;9.968;2024-02-26T00:49:44;97163.78;;;5.92;69.34
46506;BME280;32220;49.808;9.968;2024-02-26T00:52:12;97157.91;;;5.88;69.89
46506;BME280;32220;49.808;9.968;2024-02-26T00:54:40;97162.28;;;5.88;69.45
46506;BME280;32220;49.808;9.968;2024-02-26T00:57:07;97160.72;;;5.85;69.50
46506;BME280;32220;49.808;9.968;2024-02-26T00:59:36;97166.06;;;5.84;69.45
46506;BME280;32220;49.808;9.968;2024-02-26T01:02:03;97167.25;;;5.80;69.47
46506;BME280;32220;49.808;9.968;2024-02-26T01:04:32;97172.59;;;5.78;69.70
46506;BME280;32220;49.808;9.968;2024-02-26T01:07:01;97170.94;;;5.77;69.39
46506;BME280;32220;49.808;9.968;2024-02-26T01:09:29;97169.25;;;5.76;69.66
46506;BME280;32220;49.808;9.968;2024-02-26T01:11:56;97186.59;;;5.78;69.26
46506;BME280;32220;49.808;9.968;2024-02-26T01:14:24;97156.22;;;5.62;69.32
46506;BME280;32220;49.808;9.968;2024-02-26T01:16:53;97142.81;;;5.54;69.19
46506;BME280;32220;49.808;9.968;2024-02-26T01:19:20;97167.34;;;5.78;69.07
46506;BME280;32220;49.808;9.968;2024-02-26T01:21:48;97174.78;;;5.84;69.13
46506;BME280;32220;49.808;9.968;2024-02-26T01:24:15;97177.03;;;5.90;69.33
46506;BME280;32220;49.808;9.968;2024-02-26T01:26:43;97179.44;;;5.93;68.73
46506;BME280;32220;49.808;9.968;2024-02-26T01:29:10;97175.75;;;5.96;69.06
46506;BME280;32220;49.808;9.968;2024-02-26T01:31:38;97168.38;;;6.01;68.76
46506;BME280;32220;49.808;9.968;2024-02-26T01:34:07;97177.84;;;6.03;68.45
46506;BME280;32220;49.808;9.968;2024-02-26T01:36:34;97182.66;;;6.09;68.54
46506;BME280;32220;49.808;9.968;2024-02-26T01:39:02;97173.59;;;6.13;68.59
46506;BME280;32220;49.808;9.968;2024-02-26T01:41:30;97155.75;;;6.06;68.30
46506;BME280;32220;49.808;9.968;2024-02-26T01:43:58;97167.31;;;6.16;68.54
46506;BME280;32220;49.808;9.968;2024-02-26T01:46:25;97176.31;;;6.25;68.21
46506;BME280;32220;49.808;9.968;2024-02-26T01:48:53;97176.94;;;6.28;68.08
46506;BME280;32220;49.808;9.968;2024-02-26T01:51:22;97183.63;;;6.32;67.93
46506;BME280;32220;49.808;9.968;2024-02-26T01:53:50;97180.88;;;6.34;67.90
46506;BME280;32220;49.808;9.968;2024-02-26T01:56:19;97178.38;;;6.32;67.85
46506;BME280;32220;49.808;9.968;2024-02-26T01:58:48;97182.34;;;6.38;67.92
46506;BME280;32220;49.808;9.968;2024-02-26T02:01:19;97189.28;;;6.39;67.96
46506;BME280;32220;49.808;9.968;2024-02-26T02:03:49;97181.41;;;6.39;68.09
46506;BME280;32220;49.808;9.968;2024-02-26T02:06:16;97185.72;;;6.40;68.16
46506;BME280;32220;49.808;9.968;2024-02-26T02:08:46;97182.16;;;6.41;68.19
46506;BME280;32220;49.808;9.968;2024-02-26T02:11:14;97184.53;;;6.44;67.84
46506;BME280;32220;49.808;9.968;2024-02-26T02:13:41;97178.31;;;6.45;68.20
46506;BME280;32220;49.808;9.968;2024-02-26T02:16:09;97116.06;;;5.98;68.00
46506;BME280;32220;49.808;9.968;2024-02-26T02:18:36;97183.59;;;6.45;67.88
46506;BME280;32220;49.808;9.968;2024-02-26T02:21:05;97191.16;;;6.49;68.14
46506;BME280;32220;49.808;9.968;2024-02-26T02:23:33;97187.56;;;6.51;67.97
46506;BME280;32220;49.808;9.968;2024-02-26T02:26:01;97172.31;;;6.43;67.85
46506;BME280;32220;49.808;9.968;2024-02-26T02:28:28;97189.03;;;6.55;68.24
46506;BME280;32220;49.808;9.968;2024-02-26T02:30:56;97177.88;;;6.51;68.67
46506;BME280;32220;49.808;9.968;2024-02-26T02:33:26;97176.00;;;6.53;68.96
46506;BME280;32220;49.808;9.968;2024-02-26T02:35:53;97148.41;;;6.35;69.00
46506;BME280;32220;49.808;9.968;2024-02-26T02:38:22;97165.91;;;6.47;68.87
46506;BME280;32220;49.808;9.968;2024-02-26T02:40:52;97186.03;;;6.59;68.78
46506;BME280;32220;49.808;9.968;2024-02-26T02:43:19;97150.50;;;6.42;68.63
46506;BME280;32220;49.808;9.968;2024-02-26T02:45:47;97181.53;;;6.61;69.10
46506;BME280;32220;49.808;9.968;2024-02-26T02:48:14;97177.94;;;6.62;68.86
46506;BME280;32220;49.808;9.968;2024-02-26T02:50:42;97177.84;;;6.64;68.74
46506;BME280;32220;49.808;9.968;2024-02-26T02:53:09;97173.41;;;6.64;69.29
46506;BME280;32220;49.808;9.968;2024-02-26T02:55:38;97161.00;;;6.66;69.50
46506;BME280;32220;49.808;9.968;2024-02-26T02:58:06;97156.16;;;6.60;69.48
46506;BME280;32220;49.808;9.968;2024-02-26T03:00:33;97166.00;;;6.69;69.37
46506;BME280;32220;49.808;9.968;2024-02-26T03:03:01;97155.47;;;6.69;69.50
46506;BME280;32220;49.808;9.968;2024-02-26T03:05:28;97157.16;;;6.70;69.91
46506;BME280;32220;49.808;9.968;2024-02-26T03:07:56;97153.59;;;6.71;69.81
46506;BME280;32220;49.808;9.968;2024-02-26T03:10:23;97151.91;;;6.70;70.00
46506;BME280;32220;49.808;9.968;2024-02-26T03:12:53;97148.44;;;6.70;69.70
46506;BME280;32220;49.808;9.968;2024-02-26T03:15:22;97149.28;;;6.70;70.38
46506;BME280;32220;49.808;9.968;2024-02-26T03:17:50;97142.59;;;6.66;70.24
46506;BME280;32220;49.808;9.968;2024-02-26T03:20:17;97133.22;;;6.62;70.46
46506;BME280;32220;49.808;9.968;2024-02-26T03:22:45;97144.13;;;6.69;70.75
46506;BME280;32220;49.808;9.968;2024-02-26T03:25:13;97133.22;;;6.62;70.19
46506;BME280;32220;49.808;9.968;2024-02-26T03:27:40;97137.81;;;6.71;70.94
46506;BME280;32220;49.808;9.968;2024-02-26T03:30:10;97136.13;;;6.70;71.22
46506;BME280;32220;49.808;9.968;2024-02-26T03:32:37;97127.50;;;6.68;70.91
46506;BME280;32220;49.808;9.968;2024-02-26T03:35:05;97115.66;;;6.63;71.49
46506;BME280;32220;49.808;9.968;2024-02-26T03:37:33;97121.66;;;6.65;71.12
46506;BME280;32220;49.808;9.968;2024-02-26T03:40:01;97139.25;;;6.75;71.22
46506;BME280;32220;49.808;9.968;2024-02-26T03:42:29;97146.19;;;6.76;70.82
46506;BME280;32220;49.808;9.968;2024-02-26T03:44:56;97133.28;;;6.73;70.76
46506;BME280;32220;49.808;9.968;2024-02-26T03:47:25;97134.84;;;6.76;70.74
46506;BME280;32220;49.808;9.968;2024-02-26T03:49:53;97126.81;;;6.66;71.66
46506;BME280;32220;49.808;9.968;2024-02-26T03:52:20;97135.78;;;6.75;71.29
46506;BME280;32220;49.808;9.968;2024-02-26T03:54:48;97119.13;;;6.63;71.45
46506;BME280;32220;49.808;9.968;2024-02-26T03:57:15;97139.25;;;6.75;71.55
46506;BME280;32220;49.808;9.968;2024-02-26T03:59:43;97132.75;;;6.68;70.93
46506;BME280;32220;49.808;9.968;2024-02-26T04:02:10;97146.94;;;6.78;70.84
46506;BME280;32220;49.808;9.968;2024-02-26T04:04:39;97162.72;;;6.78;71.12
46506;BME280;32220;49.808;9.968;2024-02-26T04:07:07;97163.41;;;6.80;70.71
46506;BME280;32220;49.808;9.968;2024-02-26T04:09:34;97161.50;;;6.82;70.88
46506;BME280;32220;49.808;9.968;2024-02-26T04:12:02;97167.97;;;6.78;70.88
46506;BME280;32220;49.808;9.968;2024-02-26T04:14:29;97197.50;;;6.82;70.93
46506;BME280;32220;49.808;9.968;2024-02-26T04:16:57;97164.31;;;6.68;71.38
46506;BME280;32220;49.808;9.968;2024-02-26T04:19:24;97174.78;;;6.81;71.52
46506;BME280;32220;49.808;9.968;2024-02-26T04:21:54;97184.47;;;6.80;71.54
46506;BME280;32220;49.808;9.968;2024-02-26T04:24:21;97193.09;;;6.82;71.33
46506;BME280;32220;49.808;9.968;2024-02-26T04:26:49;97196.44;;;6.84;70.99
46506;BME280;32220;49.808;9.968;2024-02-26T04:29:17;97135.09;;;6.49;70.59
46506;BME280;32220;49.808;9.968;2024-02-26T04:31:44;97194.44;;;6.88;70.41
46506;BME280;32220;49.808;9.968;2024-02-26T04:34:12;97180.28;;;6.78;70.55
46506;BME280;32220;49.808;9.968;2024-02-26T04:36:40;97170.00;;;6.75;70.64
46506;BME280;32220;49.808;9.968;2024-02-26T04:39:09;97172.16;;;6.81;71.41
46506;BME280;32220;49.808;9.968;2024-02-26T04:41:37;97173.34;;;6.77;71.67
46506;BME280;32220;49.808;9.968;2024-02-26T04:44:05;97172.50;;;6.76;71.68
46506;BME280;32220;49.808;9.968;2024-02-26T04:46:32;97168.09;;;6.77;71.62
46506;BME280;32220;49.808;9.968;2024-02-26T04:49:00;97161.94;;;6.65;71.32
46506;BME280;32220;49.808;9.968;2024-02-26T04:51:28;97181.34;;;6.75;71.62
46506;BME280;32220;49.808;9.968;2024-02-26T04:53:55;97158.47;;;6.65;71.78
46506;BME280;32220;49.808;9.968;2024-02-26T04:56:24;97173.19;;;6.67;72.23
46506;BME280;32220;49.808;9.968;2024-02-26T04:58:52;97174.84;;;6.68;72.56
46506;BME280;32220;49.808;9.968;2024-02-26T05:01:20;97166.75;;;6.71;72.83
46506;BME280;32220;49.808;9.968;2024-02-26T05:03:47;97174.72;;;6.70;72.56
46506;BME280;32220;49.808;9.968;2024-02-26T05:06:15;97170.56;;;6.67;72.52
46506;BME280;32220;49.808;9.968;2024-02-26T05:08:43;97189.69;;;6.69;72.59
46506;BME280;32220;49.808;9.968;2024-02-26T05:11:10;97228.19;;;6.70;72.29
46506;BME280;32220;49.808;9.968;2024-02-26T05:13:39;97207.25;;;6.69;72.84
46506;BME280;32220;49.808;9.968;2024-02-26T05:16:07;97210.03;;;6.67;73.42
46506;BME280;32220;49.808;9.968;2024-02-26T05:18:34;97207.50;;;6.66;72.98
46506;BME280;32220;49.808;9.968;2024-02-26T05:21:02;97219.91;;;6.64;73.50
46506;BME280;32220;49.808;9.968;2024-02-26T05:23:29;97199.56;;;6.55;74.41
46506;BME280;32220;49.808;9.968;2024-02-26T05:25:57;97211.28;;;6.62;73.67
46506;BME280;32220;49.808;9.968;2024-02-26T05:28:24;97213.06;;;6.61;73.19
46506;BME280;32220;49.808;9.968;2024-02-26T05:30:53;97207.94;;;6.60;73.28
46506;BME280;32220;49.808;9.968;2024-02-26T05:33:21;97212.34;;;6.59;73.10
46506;BME280;32220;49.808;9.968;2024-02-26T05:35:49;97208.03;;;6.58;72.52
46506;BME280;32220;49.808;9.968;2024-02-26T05:38:16;97219.50;;;6.57;72.82
46506;BME280;32220;49.808;9.968;2024-02-26T08:28:31;97299.88;;;6.61;100.00
46506;BME280;32220;49.808;9.968;2024-02-26T08:30:59;97294.84;;;7.06;100.00
46506;BME280;32220;49.808;9.968;2024-02-26T08:36:33;97357.06;;;8.47;94.74
46506;BME280;32220;49.808;9.968;2024-02-26T08:39:01;97340.16;;;8.72;92.20
46506;BME280;32220;49.808;9.968;2024-02-26T08:41:30;97357.53;;;8.96;89.75
46506;BME280;32220;49.808;9.968;2024-02-26T08:43:59;97352.19;;;9.19;88.49
46506;BME280;32220;49.808;9.968;2024-02-26T08:46:27;97363.16;;;9.46;87.38
46506;BME280;32220;49.808;9.968;2024-02-26T08:49:06;97362.03;;;9.60;85.13
46506;BME280;32220;49.808;9.968;2024-02-26T08:51:33;97357.00;;;9.57;83.11
46506;BME280;32220;49.808;9.968;2024-02-26T08:54:01;97369.84;;;9.61;81.67
46506;BME280;32220;49.808;9.968;2024-02-26T08:56:29;97360.19;;;9.71;81.89
46506;BME280;32220;49.808;9.968;2024-02-26T08:58:59;97358.19;;;9.85;80.70
46506;BME280;32220;49.808;9.968;2024-02-26T09:01:31;97339.44;;;9.88;80.45
46506;BME280;32220;49.808;9.968;2024-02-26T09:03:59;97295.31;;;9.67;79.18
46506;BME280;32220;49.808;9.968;2024-02-26T09:06:28;97295.31;;;9.67;79.27
46506;BME280;32220;49.808;9.968;2024-02-26T09:08:55;97293.63;;;9.66;78.99
46506;BME280;32220;49.808;9.968;2024-02-26T09:11:26;97334.59;;;10.14;79.73
46506;BME280;32220;49.808;9.968;2024-02-26T09:13:54;97281.00;;;9.91;78.98
46506;BME280;32220;49.808;9.968;2024-02-26T09:16:24;97279.91;;;9.93;79.60
46506;BME280;32220;49.808;9.968;2024-02-26T09:18:51;97337.53;;;10.41;79.82
46506;BME280;32220;49.808;9.968;2024-02-26T09:21:19;97295.72;;;10.25;79.03
46506;BME280;32220;49.808;9.968;2024-02-26T09:23:49;97273.47;;;10.37;79.04
46506;BME280;32220;49.808;9.968;2024-02-26T09:26:17;97330.91;;;10.87;77.58
46506;BME280;32220;49.808;9.968;2024-02-26T09:28:49;97278.63;;;10.89;77.59
46506;BME280;32220;49.808;9.968;2024-02-26T09:31:17;97314.66;;;11.30;76.21
46506;BME280;32220;49.808;9.968;2024-02-26T09:33:47;97320.28;;;11.46;74.40
46506;BME280;32220;49.808;9.968;2024-02-26T09:36:14;97327.97;;;11.78;73.42
46506;BME280;32220;49.808;9.968;2024-02-26T09:38:42;97368.84;;;12.14;69.95
46506;BME280;32220;49.808;9.968;2024-02-26T09:41:14;97369.53;;;12.35;70.41
46506;BME280;32220;49.808;9.968;2024-02-26T09:43:43;97388.50;;;12.40;68.82
46506;BME280;32220;49.808;9.968;2024-02-26T09:46:12;97380.81;;;12.37;68.27
46506;BME280;32220;49.808;9.968;2024-02-26T09:48:42;97378.00;;;12.48;67.35
46506;BME280;32220;49.808;9.968;2024-02-26T09:51:12;97326.88;;;12.46;67.58
46506;BME280;32220;49.808;9.968;2024-02-26T09:53:43;97380.97;;;13.19;66.46
46506;BME280;32220;49.808;9.968;2024-02-26T09:56:12;97370.84;;;13.68;65.36
46506;BME280;32220;49.808;9.968;2024-02-26T09:58:42;97381.69;;;14.28;62.25
46506;BME280;32220;49.808;9.968;2024-02-26T10:01:16;97404.38;;;14.84;60.75
46506;BME280;32220;49.808;9.968;2024-02-26T10:03:52;97421.47;;;14.99;59.21
46506;BME280;32220;49.808;9.968;2024-02-26T10:06:24;97432.28;;;14.97;57.71
46506;BME280;32220;49.808;9.968;2024-02-26T10:08:52;97422.16;;;15.01;58.87
46506;BME280;32220;49.808;9.968;2024-02-26T10:11:20;97433.47;;;14.95;56.15
46506;BME280;32220;49.808;9.968;2024-02-26T10:13:49;97426.88;;;15.07;56.20
46506;BME280;32220;49.808;9.968;2024-02-26T10:16:17;97426.34;;;15.45;56.86
46506;BME280;32220;49.808;9.968;2024-02-26T10:18:45;97411.09;;;15.56;56.18
46506;BME280;32220;49.808;9.968;2024-02-26T10:21:14;97457.59;;;16.03;54.21
46506;BME280;32220;49.808;9.968;2024-02-26T10:23:46;97465.13;;;17.05;53.58
46506;BME280;32220;49.808;9.968;2024-02-26T10:26:14;97460.03;;;17.35;50.41
46506;BME280;32220;49.808;9.968;2024-02-26T10:28:44;97481.94;;;17.38;48.81
46506;BME280;32220;49.808;9.968;2024-02-26T10:31:14;97471.81;;;18.04;50.57
46506;BME280;32220;49.808;9.968;2024-02-26T10:33:43;97477.16;;;19.77;46.15
46506;BME280;32220;49.808;9.968;2024-02-26T10:36:11;97456.50;;;21.61;42.07
46506;BME280;32220;49.808;9.968;2024-02-26T10:38:42;97480.97;;;23.07;40.30
46506;BME280;32220;49.808;9.968;2024-02-26T10:41:14;97504.16;;;23.74;38.55
46506;BME280;32220;49.808;9.968;2024-02-26T10:43:47;97522.09;;;23.42;38.01
46506;BME280;32220;49.808;9.968;2024-02-26T10:46:15;97486.16;;;22.89;38.11
46506;BME280;32220;49.808;9.968;2024-02-26T10:48:52;97501.16;;;23.11;37.89
46506;BME280;32220;49.808;9.968;2024-02-26T10:51:22;97509.44;;;23.03;37.77
46506;BME280;32220;49.808;9.968;2024-02-26T10:53:56;97534.28;;;22.66;37.60
46506;BME280;32220;49.808;9.968;2024-02-26T10:56:33;97524.81;;;22.22;36.87
46506;BME280;32220;49.808;9.968;2024-02-26T10:59:02;97467.19;;;21.88;37.47
46506;BME280;32220;49.808;9.968;2024-02-26T11:01:30;97469.44;;;21.78;38.94
46506;BME280;32220;49.808;9.968;2024-02-26T11:03:58;97489.31;;;21.77;38.26
46506;BME280;32220;49.808;9.968;2024-02-26T11:06:28;97496.84;;;21.88;38.60
46506;BME280;32220;49.808;9.968;2024-02-26T11:08:57;97507.09;;;21.65;39.57
46506;BME280;32220;49.808;9.968;2024-02-26T11:11:36;97520.16;;;21.34;39.90
46506;BME280;32220;49.808;9.968;2024-02-26T11:17:32;97476.91;;;20.29;40.50
46506;BME280;32220;49.808;9.968;2024-02-26T11:20:05;97502.34;;;19.76;39.16
46506;BME280;32220;49.808;9.968;2024-02-26T11:22:37;97483.41;;;19.25;40.81
46506;BME280;32220;49.808;9.968;2024-02-26T11:25:05;97479.41;;;18.91;41.56
46506;BME280;32220;49.808;9.968;2024-02-26T11:27:40;97468.06;;;18.81;42.65
46506;BME280;32220;49.808;9.968;2024-02-26T11:30:11;97478.13;;;18.64;41.19
46506;BME280;32220;49.808;9.968;2024-02-26T11:32:39;97461.09;;;18.49;41.59
46506;BME280;32220;49.808;9.968;2024-02-26T11:35:08;97464.91;;;18.55;42.56
46506;BME280;32220;49.808;9.968;2024-02-26T11:37:36;97442.28;;;18.35;42.02
46506;BME280;32220;49.808;9.968;2024-02-26T11:40:10;97460.28;;;18.49;41.42
46506;BME280;32220;49.808;9.968;2024-02-26T11:43:11;97476.94;;;18.82;42.54
46506;BME280;32220;49.808;9.968;2024-02-26T11:45:51;97471.41;;;18.83;41.15
46506;BME280;32220;49.808;9.968;2024-02-26T11:48:24;97439.56;;;18.65;41.02
46506;BME280;32220;49.808;9.968;2024-02-26T11:50:53;97480.75;;;18.87;41.98
46506;BME280;32220;49.808;9.968;2024-02-26T11:53:25;97487.19;;;18.55;41.44
46506;BME280;32220;49.808;9.968;2024-02-26T11:56:12;97485.69;;;18.61;42.59
46506;BME280;32220;49.808;9.968;2024-02-26T11:58:42;97482.91;;;18.69;41.98
46506;BME280;32220;49.808;9.968;2024-02-26T12:01:40;97478.56;;;18.91;42.40
46506;BME280;32220;49.808;9.968;2024-02-26T12:04:13;97475.06;;;19.20;42.29
46506;BME280;32220;49.808;9.968;2024-02-26T12:06:47;97474.22;;;19.93;41.82
46506;BME280;32220;49.808;9.968;2024-02-26T12:09:35;97500.03;;;20.23;39.84
46506;BME280;32220;49.808;9.968;2024-02-26T12:12:05;97495.13;;;20.27;38.99
46506;BME280;32220;49.808;9.968;2024-02-26T12:14:37;97486.78;;;20.22;39.13
46506;BME280;32220;49.808;9.968;2024-02-26T12:17:06;97490.94;;;20.24;38.92
46506;BME280;32220;49.808;9.968;2024-02-26T12:19:35;97491.19;;;20.29;39.89
46506;BME280;32220;49.808;9.968;2024-02-26T12:22:03;97489.13;;;20.10;39.39
46506;BME280;32220;49.808;9.968;2024-02-26T12:24:33;97498.88;;;19.82;39.05
46506;BME280;32220;49.808;9.968;2024-02-26T12:27:01;97495.72;;;19.34;39.52
46506;BME280;32220;49.808;9.968;2024-02-26T12:29:29;97497.78;;;18.94;39.67
46506;BME280;32220;49.808;9.968;2024-02-26T12:31:59;97491.13;;;18.67;40.09
46506;BME280;32220;49.808;9.968;2024-02-26T12:35:19;97508.16;;;18.52;39.87
46506;BME280;32220;49.808;9.968;2024-02-26T12:37:46;97517.84;;;18.61;41.19
46506;BME280;32220;49.808;9.968;2024-02-26T12:40:14;97486.59;;;18.45;39.91
46506;BME280;32220;49.808;9.968;2024-02-26T12:42:42;97511.22;;;18.72;39.54
46506;BME280;32220;49.808;9.968;2024-02-26T12:45:10;97519.63;;;18.91;40.09
46506;BME280;32220;49.808;9.968;2024-02-26T12:47:40;97513.84;;;19.17;40.68
46506;BME280;32220;49.808;9.968;2024-02-26T12:50:10;97511.31;;;19.68;40.37
46506;BME280;32220;49.808;9.968;2024-02-26T12:52:43;97533.06;;;20.02;38.76
46506;BME280;32220;49.808;9.968;2024-02-26T12:55:13;97536.69;;;19.95;37.63
46506;BME280;32220;49.808;9.968;2024-02-26T12:57:42;97526.50;;;19.90;38.00
46506;BME280;32220;49.808;9.968;2024-02-26T13:00:12;97519.28;;;19.76;37.67
46506;BME280;32220;49.808;9.968;2024-02-26T13:02:43;97507.91;;;19.59;38.45
46506;BME280;32220;49.808;9.968;2024-02-26T13:05:14;97514.94;;;19.60;37.63
46506;BME280;32220;49.808;9.968;2024-02-26T13:07:42;97505.69;;;19.78;39.26
46506;BME280;32220;49.808;9.968;2024-02-26T13:10:10;97522.31;;;20.02;39.52
46506;BME280;32220;49.808;9.968;2024-02-26T13:12:43;97530.56;;;20.01;38.08
46506;BME280;32220;49.808;9.968;2024-02-26T13:15:14;97541.84;;;20.26;37.81
46506;BME280;32220;49.808;9.968;2024-02-26T13:17:44;97546.78;;;20.58;37.56
46506;BME280;32220;49.808;9.968;2024-02-26T13:20:12;97523.47;;;20.87;37.62
46506;BME280;32220;49.808;9.968;2024-02-26T13:22:42;97538.09;;;21.05;37.00
46506;BME280;32220;49.808;9.968;2024-02-26T13:25:11;97550.69;;;21.20;35.97
46506;BME280;32220;49.808;9.968;2024-02-26T13:27:38;97548.94;;;21.61;36.32
46506;BME280;32220;49.808;9.968;2024-02-26T13:30:09;97559.53;;;21.97;35.83
46506;BME280;32220;49.808;9.968;2024-02-26T13:32:38;97553.19;;;22.11;35.25
46506;BME280;32220;49.808;9.968;2024-02-26T13:35:10;97580.63;;;22.21;34.26
46506;BME280;32220;49.808;9.968;2024-02-26T13:37:39;97578.63;;;22.43;34.17
46506;BME280;32220;49.808;9.968;2024-02-26T13:40:08;97564.38;;;22.69;34.12
46506;BME280;32220;49.808;9.968;2024-02-26T13:42:36;97564.69;;;23.40;33.87
46506;BME280;32220;49.808;9.968;2024-02-26T13:45:05;97581.50;;;23.88;32.37
46506;BME280;32220;49.808;9.968;2024-02-26T13:47:34;97572.31;;;24.22;33.11
46506;BME280;32220;49.808;9.968;2024-02-26T13:50:02;97576.59;;;24.43;32.31
46506;BME280;32220;49.808;9.968;2024-02-26T13:52:31;97591.31;;;24.54;31.40
46506;BME280;32220;49.808;9.968;2024-02-26T13:55:00;97581.59;;;24.40;32.37
46506;BME280;32220;49.808;9.968;2024-02-26T13:57:29;97578.22;;;23.80;31.92
46506;BME280;32220;49.808;9.968;2024-02-26T13:59:57;97596.50;;;23.18;32.73
46506;BME280;32220;49.808;9.968;2024-02-26T14:02:24;97592.16;;;22.56;33.77
46506;BME280;32220;49.808;9.968;2024-02-26T14:04:52;97575.75;;;22.04;34.14
46506;BME280;32220;49.808;9.968;2024-02-26T14:07:19;97573.19;;;21.61;34.65
46506;BME280;32220;49.808;9.968;2024-02-26T14:09:48;97586.56;;;21.27;34.94
46506;BME280;32220;49.808;9.968;2024-02-26T14:12:17;97578.75;;;21.10;35.52
46506;BME280;32220;49.808;9.968;2024-02-26T14:14:45;97580.47;;;21.18;36.57
46506;BME280;32220;49.808;9.968;2024-02-26T14:17:14;97577.63;;;21.20;36.46
46506;BME280;32220;49.808;9.968;2024-02-26T14:19:42;97573.75;;;21.07;36.35
46506;BME280;32220;49.808;9.968;2024-02-26T14:22:10;97596.81;;;20.95;36.47
46506;BME280;32220;49.808;9.968;2024-02-26T14:24:38;97557.84;;;20.70;37.15
46506;BME280;32220;49.808;9.968;2024-02-26T14:27:08;97582.72;;;20.93;36.91
46506;BME280;32220;49.808;9.968;2024-02-26T14:29:37;97592.44;;;21.15;36.36
46506;BME280;32220;49.808;9.968;2024-02-26T14:32:06;97571.41;;;21.19;36.29
46506;BME280;32220;49.808;9.968;2024-02-26T14:34:33;97582.78;;;21.42;35.82
46506;BME280;32220;49.808;9.968;2024-02-26T14:37:01;97610.16;;;21.46;35.03
46506;BME280;32220;49.808;9.968;2024-02-26T14:39:28;97593.63;;;21.06;36.15
46506;BME280;32220;49.808;9.968;2024-02-26T14:41:57;97594.16;;;20.59;36.29
46506;BME280;32220;49.808;9.968;2024-02-26T14:44:26;97605.22;;;20.20;36.32
46506;BME280;32220;49.808;9.968;2024-02-26T14:46:54;97584.41;;;19.63;37.54
46506;BME280;32220;49.808;9.968;2024-02-26T14:49:21;97602.41;;;19.40;38.29
46506;BME280;32220;49.808;9.968;2024-02-26T14:51:49;97582.56;;;19.04;38.15
46506;BME280;32220;49.808;9.968;2024-02-26T14:54:16;97596.63;;;18.83;38.78
46506;BME280;32220;49.808;9.968;2024-02-26T14:56:45;97565.50;;;18.43;39.25
46506;BME280;32220;49.808;9.968;2024-02-26T14:59:12;97586.66;;;18.38;39.83
46506;BME280;32220;49.808;9.968;2024-02-26T15:01:41;97586.06;;;18.27;40.40
46506;BME280;32220;49.808;9.968;2024-02-26T15:04:09;97592.47;;;18.10;39.81
46506;BME280;32220;49.808;9.968;2024-02-26T15:06:37;97570.81;;;17.89;40.39
46506;BME280;32220;49.808;9.968;2024-02-26T15:09:06;97573.50;;;17.81;40.68
46506;BME280;32220;49.808;9.968;2024-02-26T15:11:38;97579.41;;;17.76;41.00
46506;BME280;32220;49.808;9.968;2024-02-26T15:14:07;97510.38;;;17.31;40.69
46506;BME280;32220;49.808;9.968;2024-02-26T15:16:34;97580.06;;;17.70;41.29
46506;BME280;32220;49.808;9.968;2024-02-26T15:19:04;97579.56;;;17.58;40.75
46506;BME280;32220;49.808;9.968;2024-02-26T15:21:33;97542.31;;;17.33;41.38
46506;BME280;32220;49.808;9.968;2024-02-26T15:24:01;97558.53;;;17.39;41.46
46506;BME280;32220;49.808;9.968;2024-02-26T15:26:29;97577.94;;;17.41;41.25
46506;BME280;32220;49.808;9.968;2024-02-26T15:28:56;97558.03;;;17.36;42.15
46506;BME280;32220;49.808;9.968;2024-02-26T15:31:24;97573.59;;;17.32;41.98
46506;BME280;32220;49.808;9.968;2024-02-26T15:33:52;97579.97;;;17.23;42.15
46506;BME280;32220;49.808;9.968;2024-02-26T15:36:21;97531.84;;;16.91;42.41
46506;BME280;32220;49.808;9.968;2024-02-26T15:38:49;97559.91;;;16.95;42.02
46506;BME280;32220;49.808;9.968;2024-02-26T15:41:16;97593.66;;;16.96;41.74
46506;BME280;32220;49.808;9.968;2024-02-26T15:43:44;97583.78;;;16.64;42.29
46506;BME280;32220;49.808;9.968;2024-02-26T15:46:12;97583.56;;;16.41;42.74
46506;BME280;32220;49.808;9.968;2024-02-26T15:48:39;97580.47;;;16.20;42.58
46506;BME280;32220;49.808;9.968;2024-02-26T15:51:07;97544.91;;;15.69;43.08
46506;BME280;32220;49.808;9.968;2024-02-26T15:53:37;97565.50;;;15.59;43.49
46506;BME280;32220;49.808;9.968;2024-02-26T15:56:06;97584.97;;;15.51;43.78
46506;BME280;32220;49.808;9.968;2024-02-26T15:58:35;97554.59;;;15.18;44.13
46506;BME280;32220;49.808;9.968;2024-02-26T16:01:03;97534.44;;;14.98;44.72
46506;BME280;32220;49.808;9.968;2024-02-26T16:03:36;97607.38;;;15.32;44.98
46506;BME280;32220;49.808;9.968;2024-02-26T16:06:05;97593.22;;;15.14;45.28
46506;BME280;32220;49.808;9.968;2024-02-26T16:08:33;97592.78;;;15.01;45.39